createdAt,value
2023-02-03T00:00:00.137Z,98473.25
2023-02-03T00:02:26.650Z,98472.78
2023-02-03T00:04:55.339Z,98476.38
2023-02-03T00:07:26.698Z,98486.53
2023-02-03T00:09:53.383Z,98484.72
2023-02-03T00:12:24.758Z,98482.59
2023-02-03T00:14:53.457Z,98487.59
2023-02-03T00:17:22.263Z,98482.59
2023-02-03T00:19:50.106Z,98482.25
2023-02-03T00:22:18.852Z,98487.38
2023-02-03T00:24:45.414Z,98498.03
2023-02-03T00:27:14.338Z,98487.03
2023-02-03T00:29:42.911Z,98486.94
2023-02-03T00:32:09.495Z,98487.72
2023-02-03T00:34:36.038Z,98485.72
2023-02-03T00:37:04.790Z,98489.72
2023-02-03T00:39:31.493Z,98485.81
2023-02-03T00:41:58.064Z,98491.19
2023-02-03T00:44:24.616Z,98491.97
2023-02-03T00:46:51.079Z,98498.13
2023-02-03T00:49:17.627Z,98500.16
2023-02-03T00:51:44.130Z,98507.97
2023-02-03T00:54:11.071Z,98516.59
2023-02-03T00:56:42.656Z,98514.06
2023-02-03T00:59:11.377Z,98514.59
2023-02-03T01:01:42.649Z,98517.41
2023-02-03T01:04:09.145Z,98512.25
2023-02-03T01:06:40.130Z,98512.72
2023-02-03T01:09:06.669Z,98519.66
2023-02-03T01:11:33.409Z,98521.09
2023-02-03T01:14:02.238Z,98529.16
2023-02-03T01:16:36.347Z,98533.59
2023-02-03T01:19:03.156Z,98538.19
2023-02-03T01:21:30.031Z,98544.34
2023-02-03T01:23:56.624Z,98545.72
2023-02-03T01:26:24.262Z,98536.28
2023-02-03T01:29:05.188Z,98546.38
2023-02-03T01:31:39.647Z,98548.03
2023-02-03T01:34:13.194Z,98538.97
2023-02-03T01:36:40.241Z,98538.97
2023-02-03T01:39:06.845Z,98547.16
2023-02-03T01:41:40.680Z,98552.97
2023-02-03T01:44:34.991Z,98551.50
2023-02-03T01:47:03.852Z,98555.78
2023-02-03T01:49:36.191Z,98543.56
2023-02-03T01:52:07.983Z,98541.00
2023-02-03T01:54:43.086Z,98541.47
2023-02-03T01:57:36.669Z,98545.72
2023-02-03T02:00:09.691Z,98541.91
2023-02-03T02:02:36.627Z,98543.13
2023-02-03T02:05:14.089Z,98541.22
2023-02-03T02:07:55.725Z,98542.78
2023-02-03T02:10:22.313Z,98539.00
2023-02-03T02:12:49.012Z,98550.19
2023-02-03T02:15:20.956Z,98546.72
2023-02-03T02:18:14.894Z,98558.56
2023-02-03T02:20:55.868Z,98552.53
2023-02-03T02:23:49.593Z,98551.75
2023-02-03T02:26:36.749Z,98551.75
2023-02-03T02:29:14.767Z,98552.41
2023-02-03T02:32:02.386Z,98549.28
2023-02-03T02:34:51.273Z,98543.91
2023-02-03T02:37:32.973Z,98529.69
2023-02-03T02:40:08.526Z,98529.81
2023-02-03T02:42:39.477Z,98524.00
2023-02-03T02:45:17.786Z,98514.84
2023-02-03T02:47:48.041Z,98505.22
2023-02-03T02:50:23.117Z,98501.75
2023-02-03T02:52:51.384Z,98490.22
2023-02-03T02:55:27.767Z,98499.41
2023-02-03T02:57:58.596Z,98486.00
2023-02-03T03:00:25.528Z,98497.50
2023-02-03T03:02:52.215Z,98502.84
2023-02-03T03:05:22.440Z,98501.66
2023-02-03T03:07:55.976Z,98488.56
2023-02-03T03:10:27.618Z,98490.91
2023-02-03T03:13:01.918Z,98494.38
2023-02-03T03:15:33.817Z,98496.03
2023-02-03T03:18:18.009Z,98499.63
2023-02-03T03:20:49.281Z,98509.72
2023-02-03T03:23:29.636Z,98510.50
2023-02-03T03:26:10.044Z,98516.50
2023-02-03T03:28:48.944Z,98518.09
2023-02-03T03:31:18.102Z,98511.28
2023-02-03T03:33:49.621Z,98508.22
2023-02-03T03:36:39.713Z,98501.31
2023-02-03T03:39:28.410Z,98495.25
2023-02-03T03:42:05.111Z,98480.19
2023-02-03T03:44:38.541Z,98480.19
2023-02-03T03:47:15.101Z,98477.94
2023-02-03T03:49:47.589Z,98476.81
2023-02-03T03:52:20.122Z,98474.47
2023-02-03T03:54:50.075Z,98472.56
2023-02-03T03:57:27.499Z,98484.06
2023-02-03T03:59:57.883Z,98493.59
2023-02-03T04:02:25.022Z,98475.94
2023-02-03T04:04:53.101Z,98468.19
2023-02-03T04:07:20.316Z,98465.53
2023-02-03T04:09:46.976Z,98466.44
2023-02-03T04:12:22.454Z,98473.56
2023-02-03T04:14:48.952Z,98469.63
2023-02-03T04:17:20.402Z,98466.16
2023-02-03T04:19:49.805Z,98473.78
2023-02-03T04:22:18.795Z,98469.84
2023-02-03T04:24:45.295Z,98463.56
2023-02-03T04:27:11.798Z,98452.97
2023-02-03T04:29:40.579Z,98455.78
2023-02-03T04:32:07.158Z,98461.69
2023-02-03T04:34:33.752Z,98446.81
2023-02-03T04:37:00.223Z,98444.38
2023-02-03T04:39:29.006Z,98443.13
2023-02-03T04:41:55.526Z,98445.59
2023-02-03T04:44:21.987Z,98451.72
2023-02-03T04:46:48.495Z,98457.44
2023-02-03T04:49:17.714Z,98461.69
2023-02-03T04:51:50.731Z,98465.91
2023-02-03T04:54:17.228Z,98468.94
2023-02-03T04:56:44.498Z,98459.56
2023-02-03T04:59:13.222Z,98449.06
2023-02-03T05:01:44.503Z,98457.88
2023-02-03T05:04:13.411Z,98474.88
2023-02-03T05:06:39.959Z,98497.59
2023-02-03T05:09:08.917Z,98511.88
2023-02-03T05:11:35.472Z,98524.31
2023-02-03T05:14:04.690Z,98524.88
2023-02-03T05:16:36.085Z,98496.28
2023-02-03T05:19:04.809Z,98488.22
2023-02-03T05:21:33.785Z,98496.28
2023-02-03T05:24:07.760Z,98505.44
2023-02-03T05:26:35.310Z,98507.13
2023-02-03T05:29:02.396Z,98509.34
2023-02-03T05:31:29.007Z,98518.63
2023-02-03T05:33:58.072Z,98508.66
2023-02-03T05:36:24.565Z,98508.66
2023-02-03T05:38:51.092Z,98502.09
2023-02-03T05:41:35.912Z,98495.63
2023-02-03T05:44:02.436Z,98490.25
2023-02-03T05:46:31.172Z,98502.97
2023-02-03T05:48:57.671Z,98507.56
2023-02-03T05:51:28.268Z,98509.44
2023-02-03T05:53:57.003Z,98500.97
2023-02-03T05:56:28.267Z,98498.72
2023-02-03T05:58:59.624Z,98502.97
2023-02-03T06:01:28.455Z,98514.50
2023-02-03T06:03:57.383Z,98511.47
2023-02-03T06:06:33.060Z,98503.22
2023-02-03T06:09:05.352Z,98500.28
2023-02-03T06:11:33.263Z,98489.47
2023-02-03T06:14:00.600Z,98496.81
2023-02-03T06:16:31.853Z,98492.25
2023-02-03T06:19:03.223Z,98501.41
2023-02-03T06:21:32.168Z,98494.03
2023-02-03T06:23:59.071Z,98491.03
2023-02-03T06:26:28.105Z,98479.06
2023-02-03T06:28:56.929Z,98477.81
2023-02-03T06:31:23.645Z,98478.28
2023-02-03T06:33:50.151Z,98482.41
2023-02-03T06:36:18.870Z,98489.66
2023-02-03T06:38:45.372Z,98495.34
2023-02-03T06:41:11.880Z,98489.34
2023-02-03T06:43:40.845Z,98503.53
2023-02-03T06:46:07.340Z,98521.09
2023-02-03T06:48:33.846Z,98524.88
2023-02-03T06:51:00.339Z,98525.66
2023-02-03T06:53:29.188Z,98523.31
2023-02-03T06:55:55.687Z,98518.72
2023-02-03T06:58:22.139Z,98524.22
2023-02-03T07:00:48.623Z,98527.38
2023-02-03T07:03:19.811Z,98532.72
2023-02-03T07:05:48.655Z,98538.09
2023-02-03T07:08:15.116Z,98545.38
2023-02-03T07:10:44.585Z,98543.56
2023-02-03T07:13:13.450Z,98546.94
2023-02-03T07:15:40.010Z,98550.16
2023-02-03T07:18:09.314Z,98557.78
2023-02-03T07:20:38.556Z,98568.63
2023-02-03T07:23:05.038Z,98580.06
2023-02-03T07:25:33.984Z,98569.53
2023-02-03T07:28:00.593Z,98576.25
2023-02-03T07:30:29.828Z,98582.41
2023-02-03T07:32:58.787Z,98578.94
2023-02-03T07:35:30.020Z,98585.41
2023-02-03T07:37:56.494Z,98594.59
2023-02-03T07:40:22.949Z,98578.72
2023-02-03T07:42:50.070Z,98559.34
2023-02-03T07:45:18.370Z,98555.44
2023-02-03T07:47:45.110Z,98549.06
2023-02-03T07:50:12.780Z,98549.72
2023-02-03T07:52:39.620Z,98557.34
2023-02-03T07:55:11.926Z,98562.78
2023-02-03T07:57:43.470Z,98560.44
2023-02-03T08:00:13.079Z,98566.25
2023-02-03T08:02:42.473Z,98572.06
2023-02-03T08:05:09.683Z,98562.78
2023-02-03T08:07:36.415Z,98564.47
2023-02-03T08:10:03.528Z,98576.13
2023-02-03T08:12:35.398Z,98583.13
2023-02-03T08:15:07.176Z,98576.13
2023-02-03T08:17:33.775Z,98559.44
2023-02-03T08:20:02.878Z,98544.16
2023-02-03T08:22:29.423Z,98545.63
2023-02-03T08:24:55.933Z,98570.03
2023-02-03T08:27:23.209Z,98565.53
2023-02-03T08:29:54.696Z,98568.91
2023-02-03T08:32:22.740Z,98582.53
2023-02-03T08:34:52.855Z,98571.59
2023-02-03T08:37:24.393Z,98569.44
2023-02-03T08:39:51.747Z,98551.38
2023-02-03T08:42:18.552Z,98523.63
2023-02-03T08:44:45.366Z,98529.53
2023-02-03T08:47:12.499Z,98526.16
2023-02-03T08:49:39.674Z,98527.63
2023-02-03T08:52:08.297Z,98517.13
2023-02-03T08:54:35.240Z,98523.41
2023-02-03T08:57:01.909Z,98527.56
2023-02-03T08:59:31.202Z,98522.28
2023-02-03T09:01:59.870Z,98517.91
2023-02-03T09:04:28.828Z,98531.28
2023-02-03T09:06:55.557Z,98557.06
2023-02-03T09:09:26.599Z,98547.53
2023-02-03T09:12:01.916Z,98553.78
2023-02-03T09:14:30.178Z,98560.22
2023-02-03T09:17:03.209Z,98564.84
2023-02-03T09:19:34.726Z,98566.47
2023-02-03T09:22:06.865Z,98562.75
2023-02-03T09:24:36.591Z,98555.63
2023-02-03T09:27:05.356Z,98536.34
2023-02-03T09:29:32.028Z,98547.81
2023-02-03T09:31:58.632Z,98546.91
2023-02-03T09:34:25.236Z,98542.03
2023-02-03T09:36:51.795Z,98543.31
2023-02-03T09:39:18.481Z,98541.06
2023-02-03T09:41:47.707Z,98546.84
2023-02-03T09:44:37.318Z,98557.19
2023-02-03T09:47:13.143Z,98551.03
2023-02-03T09:49:47.240Z,98543.94
2023-02-03T09:52:31.259Z,98530.06
2023-02-03T09:55:00.418Z,98527.81
2023-02-03T09:57:32.483Z,98524.63
2023-02-03T10:00:04.307Z,98511.56
2023-02-03T10:02:44.037Z,98513.66
2023-02-03T10:05:37.236Z,98515.97
2023-02-03T10:08:31.491Z,98525.28
2023-02-03T10:11:29.817Z,98528.88
2023-02-03T10:14:02.549Z,98541.97
2023-02-03T10:16:31.955Z,98544.94
2023-02-03T10:19:09.147Z,98553.13
2023-02-03T10:21:44.107Z,98553.97
2023-02-03T10:24:15.553Z,98548.44
2023-02-03T10:26:42.711Z,98535.84
2023-02-03T10:29:26.777Z,98539.59
2023-02-03T10:31:57.516Z,98544.25
2023-02-03T10:34:25.745Z,98537.28
2023-02-03T10:36:55.974Z,98532.75
2023-02-03T10:39:25.680Z,98521.03
2023-02-03T10:41:58.223Z,98515.25
2023-02-03T10:44:50.264Z,98519.56
2023-02-03T10:47:47.613Z,98509.75
2023-02-03T10:50:23.278Z,98514.59
2023-02-03T10:52:52.055Z,98512.69
2023-02-03T10:55:22.883Z,98511.53
2023-02-03T10:57:49.967Z,98513.53
2023-02-03T11:00:22.799Z,98514.72
2023-02-03T11:03:06.722Z,98515.41
2023-02-03T11:05:36.360Z,98500.56
2023-02-03T11:08:05.252Z,98503.03
2023-02-03T11:10:41.236Z,98498.00
2023-02-03T11:13:11.743Z,98501.28
2023-02-03T11:15:46.087Z,98490.13
2023-02-03T11:18:37.791Z,98484.47
2023-02-03T11:21:40.292Z,98474.34
2023-02-03T11:24:14.830Z,98474.94
2023-02-03T11:26:48.010Z,98470.19
2023-02-03T11:29:23.833Z,98475.81
2023-02-03T11:31:55.971Z,98483.38
2023-02-03T11:34:28.870Z,98473.72
2023-02-03T11:36:55.673Z,98468.66
2023-02-03T11:39:28.931Z,98471.00
2023-02-03T11:41:59.176Z,98469.53
2023-02-03T11:44:29.595Z,98478.41
2023-02-03T11:47:01.525Z,98485.28
2023-02-03T11:50:05.382Z,98483.72
2023-02-03T11:52:46.291Z,98480.38
2023-02-03T11:56:00.408Z,98475.91
2023-02-03T11:59:02.160Z,98461.19
2023-02-03T12:02:09.589Z,98453.56
2023-02-03T12:05:20.574Z,98437.31
2023-02-03T12:07:47.040Z,98434.38
2023-02-03T12:10:39.860Z,98440.03
2023-02-03T12:13:14.886Z,98443.44
2023-02-03T12:15:54.356Z,98435.81
2023-02-03T12:18:45.897Z,98441.81
2023-02-03T12:21:35.456Z,98443.38
2023-02-03T12:24:24.891Z,98430.34
2023-02-03T12:27:05.235Z,98438.06
2023-02-03T12:29:47.343Z,98429.31
2023-02-03T12:32:41.833Z,98426.28
2023-02-03T12:35:20.611Z,98421.59
2023-02-03T12:38:05.416Z,98433.88
2023-02-03T12:40:56.613Z,98428.97
2023-02-03T12:43:37.630Z,98422.00
2023-02-03T12:46:10.268Z,98415.75
2023-02-03T12:48:51.927Z,98406.84
2023-02-03T12:51:32.812Z,98401.47
2023-02-03T12:54:08.712Z,98398.13
2023-02-03T12:56:42.659Z,98386.22
2023-02-03T12:59:16.122Z,98379.72
2023-02-03T13:01:58.719Z,98386.00
2023-02-03T13:04:44.919Z,98374.13
2023-02-03T13:07:41.131Z,98363.47
2023-02-03T13:10:44.938Z,98370.00
2023-02-03T13:13:15.057Z,98362.97
2023-02-03T13:15:48.052Z,98374.78
2023-02-03T13:18:15.705Z,98362.84
2023-02-03T13:20:45.309Z,98358.94
2023-02-03T13:23:15.996Z,98363.94
2023-02-03T13:26:03.718Z,98370.50
2023-02-03T13:28:53.455Z,98369.28
2023-02-03T13:31:38.868Z,98363.88
2023-02-03T13:34:17.080Z,98368.88
2023-02-03T13:37:05.074Z,98367.31
2023-02-03T13:40:07.077Z,98355.00
2023-02-03T13:42:41.657Z,98341.56
2023-02-03T13:45:34.463Z,98334.59
2023-02-03T13:48:11.341Z,98337.22
2023-02-03T13:50:41.467Z,98346.91
2023-02-03T13:53:18.953Z,98343.09
2023-02-03T13:56:09.558Z,98338.16
2023-02-03T13:58:39.424Z,98345.06
2023-02-03T14:01:38.849Z,98349.59
2023-02-03T14:04:29.297Z,98352.13
2023-02-03T14:07:00.863Z,98347.16
2023-02-03T14:09:34.568Z,98329.81
2023-02-03T14:12:18.463Z,98345.19
2023-02-03T14:14:58.510Z,98355.63
2023-02-03T14:17:36.436Z,98366.06
2023-02-03T14:20:26.615Z,98363.41
2023-02-03T14:22:54.653Z,98359.97
2023-02-03T14:25:24.777Z,98363.78
2023-02-03T14:28:11.221Z,98348.94
2023-02-03T14:31:05.379Z,98356.25
2023-02-03T14:34:06.395Z,98360.44
2023-02-03T14:36:38.040Z,98367.31
2023-02-03T14:39:29.999Z,98364.53
2023-02-03T14:42:22.625Z,98376.81
2023-02-03T14:45:07.168Z,98367.91
2023-02-03T14:48:12.794Z,98374.81
2023-02-03T14:51:04.376Z,98376.66
2023-02-03T14:53:39.822Z,98382.06
2023-02-03T14:57:03.387Z,98397.44
2023-02-03T14:59:56.687Z,98402.09
2023-02-03T15:02:27.946Z,98404.66
2023-02-03T15:05:12.881Z,98396.94
2023-02-03T15:07:52.463Z,98401.13
2023-02-03T15:10:23.237Z,98404.97
2023-02-03T15:12:54.783Z,98408.41
2023-02-03T15:15:30.129Z,98415.28
2023-02-03T15:17:59.783Z,98419.47
2023-02-03T15:20:33.375Z,98418.69
2023-02-03T15:23:00.507Z,98414.81
2023-02-03T15:25:31.399Z,98412.09
2023-02-03T15:28:22.103Z,98418.13
2023-02-03T15:30:57.978Z,98420.06
2023-02-03T15:33:25.265Z,98418.50
2023-02-03T15:36:00.843Z,98406.16
2023-02-03T15:38:42.006Z,98411.25
2023-02-03T15:41:19.896Z,98401.91
2023-02-03T15:43:48.433Z,98414.25
2023-02-03T15:46:39.637Z,98413.41
2023-02-03T15:49:15.919Z,98409.13
2023-02-03T15:51:51.841Z,98406.44
2023-02-03T15:54:30.388Z,98397.13
2023-02-03T15:57:02.186Z,98410.97
2023-02-03T15:59:40.067Z,98410.97
2023-02-03T16:02:18.705Z,98409.72
2023-02-03T16:04:50.198Z,98416.59
2023-02-03T16:07:25.833Z,98412.34
2023-02-03T16:09:54.253Z,98423.47
2023-02-03T16:12:33.840Z,98426.56
2023-02-03T16:15:04.095Z,98421.56
2023-02-03T16:17:32.415Z,98413.00
2023-02-03T16:20:11.272Z,98401.78
2023-02-03T16:22:41.215Z,98398.59
2023-02-03T16:25:21.428Z,98405.47
2023-02-03T16:28:17.312Z,98423.66
2023-02-03T16:31:34.166Z,98424.78
2023-02-03T16:34:38.141Z,98414.00
2023-02-03T16:37:42.458Z,98427.84
2023-02-03T16:40:31.764Z,98437.84
2023-02-03T16:43:17.481Z,98447.75
2023-02-03T16:46:02.489Z,98454.66
2023-02-03T16:48:50.247Z,98460.84
2023-02-03T16:51:17.296Z,98460.75
2023-02-03T16:53:45.444Z,98462.66
2023-02-03T16:56:13.679Z,98457.63
2023-02-03T16:58:40.574Z,98445.34
2023-02-03T17:01:09.654Z,98440.31
2023-02-03T17:03:36.860Z,98433.34
2023-02-03T17:06:11.487Z,98446.06
2023-02-03T17:08:41.879Z,98464.50
2023-02-03T17:11:16.312Z,98467.19
2023-02-03T17:13:43.247Z,98463.31
2023-02-03T17:16:17.419Z,98462.09
2023-02-03T17:18:49.226Z,98467.13
2023-02-03T17:21:21.519Z,98468.25
2023-02-03T17:23:48.218Z,98467.91
2023-02-03T17:26:14.796Z,98459.03
2023-02-03T17:28:43.177Z,98451.75
2023-02-03T17:31:15.591Z,98461.75
2023-02-03T17:33:44.720Z,98457.03
2023-02-03T17:36:15.441Z,98459.81
2023-02-03T17:55:34.905Z,98455.78
2023-02-03T17:58:04.002Z,98450.66
2023-02-03T18:00:32.874Z,98451.34
2023-02-03T18:02:59.575Z,98447.44
2023-02-03T18:05:26.224Z,98445.88
2023-02-03T18:07:55.140Z,98448.16
2023-02-03T18:10:21.874Z,98447.34
2023-02-03T18:12:48.508Z,98445.47
2023-02-03T18:15:15.278Z,98449.72
2023-02-03T18:17:44.171Z,98444.75
2023-02-03T18:20:13.765Z,98442.84
2023-02-03T18:22:42.627Z,98445.09
2023-02-03T18:25:09.708Z,98449.78
2023-02-03T18:27:41.063Z,98452.84
2023-02-03T18:30:11.642Z,98455.88
2023-02-03T18:32:40.673Z,98453.19
2023-02-03T18:35:13.016Z,98467.00
2023-02-03T18:37:39.571Z,98479.00
2023-02-03T18:40:09.349Z,98475.88
2023-02-03T18:42:38.238Z,98481.28
2023-02-03T18:45:06.441Z,98480.03
2023-02-03T18:47:33.968Z,98485.06
2023-02-03T18:50:02.940Z,98487.31
2023-02-03T18:52:29.489Z,98492.72
2023-02-03T18:54:56.061Z,98485.06
2023-02-03T18:57:26.098Z,98483.84
2023-02-03T18:59:55.432Z,98483.84
2023-02-03T19:02:25.777Z,98489.56
2023-02-03T19:04:58.305Z,98483.06
2023-02-03T19:07:26.133Z,98482.28
2023-02-03T19:09:54.948Z,98482.28
2023-02-03T19:12:21.575Z,98483.84
2023-02-03T19:14:50.338Z,98483.06
2023-02-03T19:17:19.133Z,98483.84
2023-02-03T19:19:50.562Z,98473.84
2023-02-03T19:22:21.938Z,98478.44
2023-02-03T19:24:48.519Z,98475.31
2023-02-03T19:27:15.098Z,98466.09
2023-02-03T19:29:46.435Z,98464.19
2023-02-03T19:32:15.683Z,98458.47
2023-02-03T19:34:42.426Z,98459.59
2023-02-03T19:37:11.523Z,98443.78
2023-02-03T19:39:39.393Z,98441.41
2023-02-03T19:42:06.021Z,98447.25
2023-02-03T19:44:32.706Z,98440.28
2023-02-03T19:47:03.387Z,98446.13
2023-02-03T19:49:30.196Z,98442.63
2023-02-03T19:51:59.252Z,98456.91
2023-02-03T19:54:28.266Z,98460.38
2023-02-03T19:56:57.586Z,98470.81
2023-02-03T19:59:26.640Z,98473.50
2023-02-03T20:01:53.571Z,98460.81
2023-02-03T20:04:20.209Z,98467.00
2023-02-03T20:06:46.783Z,98458.94
2023-02-03T20:09:13.382Z,98451.50
2023-02-03T20:11:39.931Z,98458.75
2023-02-03T20:14:06.471Z,98466.03
2023-02-03T20:16:33.134Z,98476.03
2023-02-03T20:19:01.146Z,98475.66
2023-02-03T20:21:27.820Z,98470.22
2023-02-03T20:23:56.615Z,98463.25
2023-02-03T20:26:27.919Z,98453.97
2023-02-03T20:28:56.885Z,98446.22
2023-02-03T20:31:25.839Z,98443.13
2023-02-03T20:33:54.897Z,98451.97
2023-02-03T20:36:23.697Z,98458.91
2023-02-03T20:38:50.401Z,98453.13
2023-02-03T20:41:20.206Z,98460.03
2023-02-03T20:43:47.601Z,98455.03
2023-02-03T20:46:18.920Z,98448.50
2023-02-03T20:48:48.474Z,98435.81
2023-02-03T20:51:18.022Z,98448.50
2023-02-03T20:53:44.620Z,98444.66
2023-02-03T20:56:15.714Z,98456.59
2023-02-03T20:58:43.703Z,98462.75
2023-02-03T21:01:19.267Z,98475.44
2023-02-03T21:04:11.885Z,98483.94
2023-02-03T21:06:39.506Z,98474.38
2023-02-03T21:09:14.876Z,98465.53
2023-02-03T21:11:42.551Z,98453.19
2023-02-03T21:14:40.842Z,98449.28
2023-02-03T21:17:19.007Z,98452.75
2023-02-03T21:19:51.224Z,98451.22
2023-02-03T21:22:26.607Z,98461.59
2023-02-03T21:25:01.090Z,98470.06
2023-02-03T21:27:28.544Z,98463.91
2023-02-03T21:29:59.136Z,98475.81
2023-02-03T21:32:40.148Z,98475.00
2023-02-03T21:35:37.375Z,98487.34
2023-02-03T21:38:31.500Z,98490.06
2023-02-03T21:41:01.212Z,98484.66
2023-02-03T21:43:36.369Z,98476.16
2023-02-03T21:46:02.978Z,98470.75
2023-02-03T21:48:38.670Z,98470.31
2023-02-03T21:51:26.599Z,98474.03
2023-02-03T21:53:55.909Z,98473.25
2023-02-03T21:56:22.585Z,98463.22
2023-02-03T21:58:55.317Z,98464.00
2023-02-03T22:01:26.560Z,98473.19
2023-02-03T22:03:56.245Z,98468.94
2023-02-03T22:06:25.453Z,98477.38
2023-02-03T22:08:54.598Z,98477.38
2023-02-03T22:11:24.032Z,98471.19
2023-02-03T22:13:52.753Z,98475.81
2023-02-03T22:16:21.655Z,98480.41
2023-02-03T22:18:51.382Z,98485.78
2023-02-03T22:21:20.951Z,98495.09
2023-02-03T22:23:52.279Z,98498.56
2023-02-03T22:26:19.878Z,98497.00
2023-02-03T22:28:46.994Z,98503.16
2023-02-03T22:31:16.729Z,98510.91
2023-02-03T22:33:46.070Z,98498.56
2023-02-03T22:36:12.929Z,98503.94
2023-02-03T22:38:40.426Z,98492.75
2023-02-03T22:41:08.865Z,98501.59
2023-02-03T22:43:35.653Z,98508.91
2023-02-03T22:46:02.397Z,98503.41
2023-02-03T22:48:29.429Z,98505.34
2023-02-03T22:50:59.471Z,98506.47
2023-02-03T22:53:26.752Z,98507.28
2023-02-03T22:56:00.118Z,98516.81
2023-02-03T22:58:26.650Z,98517.94
2023-02-03T23:00:53.244Z,98517.94
2023-02-03T23:03:19.817Z,98520.63
2023-02-03T23:05:51.170Z,98521.06
2023-02-03T23:08:20.515Z,98522.19
2023-02-03T23:10:49.555Z,98523.31
2023-02-03T23:13:18.473Z,98523.66
2023-02-03T23:15:47.538Z,98528.28
2023-02-03T23:18:18.881Z,98538.25
2023-02-03T23:20:45.445Z,98529.75
2023-02-03T23:23:12.032Z,98521.66
2023-02-03T23:25:38.606Z,98518.19
2023-02-03T23:28:05.299Z,98514.38
2023-02-03T23:30:32.344Z,98507.78
2023-02-03T23:33:01.387Z,98507.00
2023-02-03T23:35:45.991Z,98505.84
2023-02-03T23:38:16.900Z,98508.97
2023-02-03T23:40:43.873Z,98518.56
2023-02-03T23:43:10.570Z,98508.13
2023-02-03T23:45:37.155Z,98510.03
2023-02-03T23:48:04.313Z,98504.22
2023-02-03T23:50:33.358Z,98505.34
2023-02-03T23:53:04.823Z,98507.25
2023-02-03T23:55:31.525Z,98497.25
2023-02-03T23:58:00.377Z,98507.25
